Time,TemperatureF,DewpointF,PressureIn,WindDirection,WindDirectionDegrees,WindSpeedMPH,WindSpeedGustMPH,Humidity,HourlyPrecipIn,Conditions,Clouds,dailyrainin,SoftwareType,DateUTC
2013-07-31 00:12:00,80.0,-99.9,30.20,SSW,199,4.0,6.0,-999,-99.99,,,-99.99,,2013-07-31 04:12:00,
2013-07-31 00:22:00,80.0,-99.9,30.20,SSW,199,4.0,6.0,-999,-99.99,,,-99.99,,2013-07-31 04:22:00,
2013-07-31 00:52:00,80.0,-99.9,30.19,South,191,4.0,7.0,-999,-99.99,,,-99.99,,2013-07-31 04:52:00,
2013-07-31 01:02:00,80.0,-99.9,30.19,SSW,196,4.0,6.0,-999,-99.99,,,-99.99,,2013-07-31 05:02:00,
2013-07-31 01:12:00,80.0,-99.9,30.19,SSW,203,4.0,6.0,-999,-99.99,,,-99.99,,2013-07-31 05:12:00,
2013-07-31 01:32:00,80.0,-99.9,30.19,South,191,6.0,7.0,-999,-99.99,,,-99.99,,2013-07-31 05:32:00,
2013-07-31 01:43:00,80.0,-99.9,30.19,SSW,205,5.0,7.0,-999,-99.99,,,-99.99,,2013-07-31 05:43:00,
2013-07-31 01:52:00,80.0,-99.9,30.18,South,183,4.0,7.0,-999,-99.99,,,-99.99,,2013-07-31 05:52:00,
2013-07-31 02:02:00,80.0,-99.9,30.18,SSW,195,4.0,5.0,-999,-99.99,,,-99.99,,2013-07-31 06:02:00,
2013-07-31 02:32:00,79.0,-99.9,30.17,SSW,206,4.0,6.0,-999,-99.99,,,-99.99,,2013-07-31 06:32:00,
2013-07-31 02:43:00,79.0,-99.9,30.16,SSW,196,4.0,6.0,-999,-99.99,,,-99.99,,2013-07-31 06:43:00,
2013-07-31 02:53:00,79.0,-99.9,30.16,SSW,196,4.0,6.0,-999,-99.99,,,-99.99,,2013-07-31 06:53:00,
2013-07-31 03:02:00,79.0,-99.9,30.16,SSW,208,4.0,5.0,-999,-99.99,,,-99.99,,2013-07-31 07:02:00,
2013-07-31 03:12:00,79.0,-99.9,30.16,SSW,208,4.0,5.0,-999,-99.99,,,-99.99,,2013-07-31 07:12:00,
2013-07-31 03:22:00,79.0,-99.9,30.16,SW,221,5.0,7.0,-999,-99.99,,,-99.99,,2013-07-31 07:22:00,
2013-07-31 03:32:00,79.0,-99.9,30.15,SSW,212,4.0,9.0,-999,-99.99,,,-99.99,,2013-07-31 07:32:00,
2013-07-31 03:43:00,79.0,-99.9,30.15,SW,215,4.0,7.0,-999,-99.99,,,-99.99,,2013-07-31 07:43:00,
2013-07-31 03:52:00,79.0,-99.9,30.15,SW,215,4.0,6.0,-999,-99.99,,,-99.99,,2013-07-31 07:52:00,
2013-07-31 04:02:00,79.0,-99.9,30.15,SW,216,4.0,6.0,-999,-99.99,,,-99.99,,2013-07-31 08:02:00,
2013-07-31 04:22:00,79.0,-99.9,30.15,WSW,240,7.0,9.0,-999,-99.99,,,-99.99,,2013-07-31 08:22:00,
2013-07-31 04:42:00,78.0,-99.9,30.15,SW,227,3.0,6.0,-999,-99.99,,,-99.99,,2013-07-31 08:42:00,
2013-07-31 05:02:00,79.0,-99.9,30.15,WSW,238,4.0,5.0,-999,-99.99,,,-99.99,,2013-07-31 09:02:00,
2013-07-31 05:22:00,78.0,-99.9,30.14,SW,218,3.0,4.0,-999,-99.99,,,-99.99,,2013-07-31 09:22:00,
2013-07-31 05:44:00,77.0,-99.9,30.14,South,175,2.0,3.0,-999,-99.99,,,-99.99,,2013-07-31 09:44:00,
2013-07-31 06:02:00,77.0,-99.9,30.14,South,175,3.0,3.0,-999,-99.99,,,-99.99,,2013-07-31 10:02:00,
2013-07-31 06:44:00,77.0,-99.9,30.16,South,186,3.0,4.0,-999,-99.99,,,-99.99,,2013-07-31 10:44:00,
2013-07-31 07:03:00,77.0,-99.9,30.16,South,187,3.0,4.0,-999,-99.99,,,-99.99,,2013-07-31 11:03:00,
2013-07-31 07:12:00,77.0,-99.9,30.16,South,187,3.0,4.0,-999,-99.99,,,-99.99,,2013-07-31 11:12:00,
2013-07-31 07:22:00,77.0,-99.9,30.16,SSE,158,4.0,5.0,-999,-99.99,,,-99.99,,2013-07-31 11:22:00,
2013-07-31 07:33:00,77.0,-99.9,30.16,SSE,158,4.0,5.0,-999,-99.99,,,-99.99,,2013-07-31 11:33:00,
2013-07-31 07:43:00,77.0,-99.9,30.17,South,176,2.0,4.0,-999,-99.99,,,-99.99,,2013-07-31 11:43:00,
2013-07-31 08:03:00,78.0,-99.9,30.17,SSE,168,2.0,4.0,-999,-99.99,,,-99.99,,2013-07-31 12:03:00,
2013-07-31 08:43:00,79.0,-99.9,30.18,SSW,194,4.0,5.0,-999,-99.99,,,-99.99,,2013-07-31 12:43:00,
2013-07-31 09:02:00,80.0,-99.9,30.18,SSW,194,3.0,6.0,-999,-99.99,,,-99.99,,2013-07-31 13:02:00,
2013-07-31 09:22:00,81.0,-99.9,30.18,SW,217,4.0,6.0,-999,-99.99,,,-99.99,,2013-07-31 13:22:00,
2013-07-31 09:43:00,80.0,-99.9,30.19,WSW,237,6.0,6.0,-999,-99.99,,,-99.99,,2013-07-31 13:43:00,
2013-07-31 09:53:00,81.0,-99.9,30.18,SW,232,4.0,6.0,-999,-99.99,,,-99.99,,2013-07-31 13:53:00,
2013-07-31 10:02:00,81.0,-99.9,30.19,WSW,239,5.0,6.0,-999,-99.99,,,-99.99,,2013-07-31 14:02:00,
2013-07-31 10:13:00,82.0,-99.9,30.19,WSW,243,6.0,10.0,-999,-99.99,,,-99.99,,2013-07-31 14:13:00,
2013-07-31 10:23:00,82.0,-99.9,30.19,WSW,240,4.0,5.0,-999,-99.99,,,-99.99,,2013-07-31 14:23:00,
2013-07-31 10:43:00,83.0,-99.9,30.19,WSW,240,3.0,4.0,-999,-99.99,,,-99.99,,2013-07-31 14:43:00,
2013-07-31 11:02:00,83.0,-99.9,30.18,WSW,251,3.0,4.0,-999,-99.99,,,-99.99,,2013-07-31 15:02:00,
2013-07-31 11:44:00,85.0,-99.9,30.19,SW,218,3.0,5.0,-999,-99.99,,,-99.99,,2013-07-31 15:44:00,
2013-07-31 11:53:00,85.0,-99.9,30.18,ENE,69,3.0,6.0,-999,-99.99,,,-99.99,,2013-07-31 15:53:00,
2013-07-31 12:02:00,85.0,-99.9,30.18,SE,133,9.0,12.0,-999,-99.99,,,-99.99,,2013-07-31 16:02:00,
2013-07-31 12:44:00,83.0,-99.9,30.17,SE,140,7.0,12.0,-999,-99.99,,,-99.99,,2013-07-31 16:44:00,
2013-07-31 13:03:00,83.0,-99.9,30.17,SE,132,9.0,13.0,-999,-99.99,,,-99.99,,2013-07-31 17:03:00,
2013-07-31 13:43:00,74.0,-99.9,30.16,SSE,157,9.0,19.0,-999,-99.99,,,-99.99,,2013-07-31 17:43:00,
2013-07-31 14:02:00,76.0,-99.9,30.16,SE,129,11.0,15.0,-999,-99.99,,,-99.99,,2013-07-31 18:02:00,
2013-07-31 14:33:00,78.0,-99.9,30.13,South,170,4.0,7.0,-999,-99.99,,,-99.99,,2013-07-31 18:33:00,
2013-07-31 14:43:00,78.0,-99.9,30.12,SSE,158,5.0,7.0,-999,-99.99,,,-99.99,,2013-07-31 18:43:00,
2013-07-31 16:03:00,78.0,-99.9,30.14,NNW,338,15.0,18.0,-999,-99.99,,,-99.99,,2013-07-31 20:03:00,
2013-07-31 16:13:00,77.0,-99.9,30.14,NNW,332,13.0,16.0,-999,-99.99,,,-99.99,,2013-07-31 20:13:00,
2013-07-31 16:43:00,76.0,-99.9,30.11,WNW,296,3.0,5.0,-999,-99.99,,,-99.99,,2013-07-31 20:43:00,
2013-07-31 16:53:00,76.0,-99.9,30.11,WNW,296,3.0,5.0,-999,-99.99,,,-99.99,,2013-07-31 20:53:00,
2013-07-31 18:13:00,76.0,-99.9,30.11,SSW,211,3.0,4.0,-999,-99.99,,,-99.99,,2013-07-31 22:13:00,
2013-07-31 18:33:00,76.0,-99.9,30.11,SSW,207,6.0,7.0,-999,-99.99,,,-99.99,,2013-07-31 22:33:00,
2013-07-31 18:43:00,76.0,-99.9,30.11,SSE,168,3.0,5.0,-999,-99.99,,,-99.99,,2013-07-31 22:43:00,
2013-07-31 19:02:00,76.0,-99.9,30.11,WSW,241,4.0,5.0,-999,-99.99,,,-99.99,,2013-07-31 23:02:00,
2013-07-31 19:43:00,76.0,-99.9,30.12,WNW,294,5.0,7.0,-999,-99.99,,,-99.99,,2013-07-31 23:43:00,
2013-07-31 19:53:00,77.0,-99.9,30.12,NW,304,4.0,5.0,-999,-99.99,,,-99.99,,2013-07-31 23:53:00,
2013-07-31 20:03:00,77.0,-99.9,30.12,West,280,7.0,8.0,-999,-99.99,,,-99.99,,2013-08-01 00:03:00,
2013-07-31 20:12:00,76.0,-99.9,30.12,WNW,290,7.0,9.0,-999,-99.99,,,-99.99,,2013-08-01 00:12:00,
2013-07-31 20:32:00,76.0,-99.9,30.12,SW,235,6.0,8.0,-999,-99.99,,,-99.99,,2013-08-01 00:32:00,
2013-07-31 20:52:00,76.0,-99.9,30.12,SSW,198,3.0,4.0,-999,-99.99,,,-99.99,,2013-08-01 00:52:00,
2013-07-31 21:03:00,75.0,-99.9,30.11,SE,144,3.0,4.0,-999,-99.99,,,-99.99,,2013-08-01 01:03:00,
2013-07-31 21:13:00,76.0,-99.9,30.12,SSE,150,4.0,6.0,-999,-99.99,,,-99.99,,2013-08-01 01:13:00,
2013-07-31 21:33:00,75.0,-99.9,30.13,South,172,5.0,10.0,-999,-99.99,,,-99.99,,2013-08-01 01:33:00,
2013-07-31 21:43:00,75.0,-99.9,30.12,South,171,7.0,11.0,-999,-99.99,,,-99.99,,2013-08-01 01:43:00,
2013-07-31 22:02:00,74.0,-99.9,30.12,South,189,6.0,10.0,-999,-99.99,,,-99.99,,2013-08-01 02:02:00,
2013-07-31 22:22:00,74.0,-99.9,30.12,South,188,6.0,11.0,-999,-99.99,,,-99.99,,2013-08-01 02:22:00,
2013-07-31 22:32:00,74.0,-99.9,30.12,South,191,6.0,9.0,-999,-99.99,,,-99.99,,2013-08-01 02:32:00,
2013-07-31 22:43:00,74.0,-99.9,30.12,South,189,6.0,9.0,-999,-99.99,,,-99.99,,2013-08-01 02:43:00,
2013-07-31 23:12:00,74.0,-99.9,30.12,South,189,6.0,9.0,-999,-99.99,,,-99.99,,2013-08-01 03:12:00,
2013-07-31 23:22:00,74.0,-99.9,30.12,South,182,6.0,8.0,-999,-99.99,,,-99.99,,2013-08-01 03:22:00,
2013-07-31 23:43:00,74.0,-99.9,30.11,South,179,4.0,7.0,-999,-99.99,,,-99.99,,2013-08-01 03:43:00,